Time;durP1;ratioP1;P1;durP2;ratioP2;P2;SDS_P1;SDS_P2;PMS_P1;PMS_P2;Temp;Humidity;BMP_temperature;BMP_pressure;BME280_temperature;BME280_humidity;BME280_pressure;Samples;Min_cycle;Max_cycle;Signal;HPM_P1;HPM_P2
2022/07/16 00:02:06;;;;;;;2.95;1.05;;;;;;;16.01;46.53;101254.53;5015059;28;20084;-69
2022/07/16 00:04:33;;;;;;;1.23;0.70;;;;;;;15.94;46.61;101251.72;5013820;28;20132;-68
2022/07/16 00:07:00;;;;;;;2.17;0.90;;;;;;;16.06;46.20;101246.72;5012364;28;20155;-70
2022/07/16 00:09:26;;;;;;;3.70;0.70;;;;;;;16.07;46.22;101248.41;5014142;28;20461;-69
2022/07/16 00:11:53;;;;;;;3.30;0.95;;;;;;;15.91;46.58;101238.53;5013694;28;20065;-69
2022/07/16 00:14:20;;;;;;;1.58;0.68;;;;;;;16.02;46.30;101233.72;5013495;28;20149;-68
2022/07/16 00:16:46;;;;;;;6.38;1.00;;;;;;;16.08;46.02;101239.25;5013747;28;20445;-69
2022/07/16 00:19:15;;;;;;;2.40;0.90;;;;;;;16.05;46.16;101226.06;5012980;28;20148;-70
2022/07/16 00:21:43;;;;;;;1.70;0.70;;;;;;;15.92;46.64;101232.13;5014356;28;20179;-69
2022/07/16 00:24:10;;;;;;;1.67;0.55;;;;;;;15.92;46.43;101225.88;5013649;28;20104;-69
2022/07/16 00:26:37;;;;;;;1.83;0.80;;;;;;;15.93;46.46;101224.84;5013309;28;20249;-69
2022/07/16 00:29:03;;;;;;;2.03;0.50;;;;;;;15.79;46.73;101225.66;5013806;28;20065;-69
2022/07/16 00:31:30;;;;;;;4.90;0.77;;;;;;;15.78;47.02;101224.81;5013024;28;20104;-70
2022/07/16 00:33:56;;;;;;;2.92;0.70;;;;;;;15.74;47.01;101225.34;5013127;28;20046;-70
2022/07/16 00:36:23;;;;;;;3.05;0.70;;;;;;;15.78;47.00;101227.53;5013889;28;20153;-70
2022/07/16 00:38:49;;;;;;;5.25;1.00;;;;;;;15.80;47.01;101214.66;5013871;28;20125;-69
2022/07/16 00:41:16;;;;;;;2.10;0.80;;;;;;;15.83;47.04;101208.03;5013833;28;20375;-69
2022/07/16 00:43:52;;;;;;;3.88;0.95;;;;;;;15.89;46.79;101213.56;5015093;28;20073;-69
2022/07/16 00:46:19;;;;;;;3.85;0.68;;;;;;;15.96;46.48;101213.66;5012478;28;20124;-69
2022/07/16 00:48:46;;;;;;;3.58;0.93;;;;;;;15.74;47.44;101211.81;5014004;28;20540;-69
2022/07/16 00:51:15;;;;;;;3.92;0.90;;;;;;;15.86;47.07;101210.38;5014561;28;20049;-68
2022/07/16 00:53:43;;;;;;;5.05;1.15;;;;;;;15.83;47.10;101208.03;5014453;28;20057;-69
2022/07/16 00:56:12;;;;;;;8.48;2.45;;;;;;;15.87;46.91;101202.06;5014725;28;20435;-70
2022/07/16 00:58:40;;;;;;;4.18;1.40;;;;;;;15.84;47.18;101210.53;5014029;28;20061;-69
2022/07/16 01:01:08;;;;;;;1.70;1.00;;;;;;;15.83;47.19;101205.31;5014803;28;20057;-70
2022/07/16 01:03:36;;;;;;;10.23;0.98;;;;;;;15.81;47.41;101199.25;5014533;28;20069;-69
2022/07/16 01:09:51;;;;;;;4.38;0.93;;;;;;;15.69;47.82;101191.56;5014022;28;20107;-69
2022/07/16 01:12:18;;;;;;;6.57;0.90;;;;;;;15.65;48.03;101197.53;5014201;28;20042;-69
2022/07/16 01:14:45;;;;;;;7.70;0.77;;;;;;;15.76;47.76;101193.56;5013770;28;20066;-69
2022/07/16 01:17:12;;;;;;;1.80;0.70;;;;;;;15.63;48.32;101191.47;5013132;28;20084;-69
2022/07/16 01:19:38;;;;;;;2.25;0.55;;;;;;;15.67;48.16;101190.06;5014775;28;20037;-69
2022/07/16 01:22:05;;;;;;;2.88;0.80;;;;;;;15.73;47.99;101185.81;5014266;28;20455;-69
2022/07/16 01:24:31;;;;;;;4.88;0.55;;;;;;;15.64;48.36;101187.72;5013719;28;20069;-69
2022/07/16 01:26:58;;;;;;;2.47;0.90;;;;;;;15.68;48.13;101179.09;5013803;28;20100;-68
2022/07/16 01:29:25;;;;;;;2.28;0.77;;;;;;;15.66;48.27;101177.56;5013261;28;20563;-70
2022/07/16 01:31:51;;;;;;;1.90;0.60;;;;;;;15.70;48.28;101176.19;5014009;28;20049;-69
2022/07/16 01:34:27;;;;;;;2.78;0.77;;;;;;;15.70;48.33;101170.78;5012633;28;20041;-70
2022/07/16 01:37:00;;;;;;;1.92;0.50;;;;;;;15.66;48.36;101175.72;5012622;28;20045;-70
2022/07/16 01:39:28;;;;;;;2.83;0.80;;;;;;;15.66;48.30;101178.41;5012820;28;20095;-69
2022/07/16 01:41:58;;;;;;;3.53;0.73;;;;;;;15.53;48.67;101172.75;5011952;28;20133;-69
2022/07/16 01:44:26;;;;;;;6.85;0.90;;;;;;;15.45;49.03;101167.41;5011866;28;20521;-69
2022/07/16 01:46:54;;;;;;;3.70;0.70;;;;;;;15.51;48.75;101160.44;5012950;28;20100;-69
2022/07/16 01:49:21;;;;;;;5.95;0.70;;;;;;;15.55;48.70;101157.19;5012141;28;20103;-69
2022/07/16 01:51:48;;;;;;;0.95;0.50;;;;;;;15.38;49.17;101153.78;5012296;28;20474;-69
2022/07/16 01:54:15;;;;;;;1.33;0.55;;;;;;;15.56;48.88;101148.03;5012674;28;20077;-69
2022/07/16 01:56:42;;;;;;;3.13;0.90;;;;;;;15.56;48.57;101142.63;5008950;28;20088;-69
2022/07/16 01:59:08;;;;;;;2.50;0.77;;;;;;;15.39;48.98;101138.41;5012242;28;20133;-69
2022/07/16 02:01:35;;;;;;;2.28;0.80;;;;;;;15.52;48.57;101141.31;5012575;28;20140;-69
2022/07/16 02:04:02;;;;;;;3.58;0.77;;;;;;;15.53;48.47;101134.88;5012404;28;20136;-70
2022/07/16 02:06:28;;;;;;;2.55;0.93;;;;;;;15.61;48.28;101134.84;5011865;28;20406;-70
2022/07/16 02:08:55;;;;;;;5.60;1.10;;;;;;;15.60;48.40;101135.00;5011842;28;20050;-68
2022/07/16 02:11:21;;;;;;;5.25;1.15;;;;;;;15.48;48.56;101126.50;5011970;28;20132;-69
2022/07/16 02:13:48;;;;;;;2.72;0.80;;;;;;;15.45;48.42;101121.44;5012609;28;20125;-69
2022/07/16 02:16:14;;;;;;;2.38;0.90;;;;;;;15.42;48.40;101116.41;5011932;28;20054;-69
2022/07/16 02:18:41;;;;;;;3.33;0.80;;;;;;;15.53;48.13;101125.94;5011655;28;20052;-69
2022/07/16 02:21:08;;;;;;;1.83;0.90;;;;;;;15.29;48.83;101119.72;5011344;28;20545;-70
2022/07/16 02:23:34;;;;;;;2.92;0.80;;;;;;;15.40;48.45;101115.75;5011907;28;20049;-69
2022/07/16 02:26:01;;;;;;;2.15;0.95;;;;;;;15.30;48.91;101117.88;5011842;28;20049;-68
2022/07/16 02:28:27;;;;;;;2.33;0.98;;;;;;;15.23;48.89;101117.75;5011793;28;20080;-70
2022/07/16 02:30:54;;;;;;;3.47;1.00;;;;;;;15.16;49.00;101114.09;5011029;28;20474;-69
2022/07/16 02:33:21;;;;;;;5.70;1.25;;;;;;;15.20;48.87;101110.84;5012022;28;20058;-68
2022/07/16 02:35:48;;;;;;;3.58;0.93;;;;;;;14.96;49.50;101113.75;5010803;28;20049;-69
2022/07/16 02:38:15;;;;;;;5.13;1.00;;;;;;;14.99;49.49;101107.97;5011284;28;20132;-69
2022/07/16 02:40:42;;;;;;;4.25;0.95;;;;;;;14.93;49.65;101104.13;5011965;28;20129;-69
2022/07/16 02:43:09;;;;;;;2.00;0.85;;;;;;;15.05;49.38;101101.00;5012084;28;20050;-69
2022/07/16 02:45:38;;;;;;;2.03;0.80;;;;;;;14.94;49.70;101096.84;5012051;28;20074;-69
2022/07/16 02:48:05;;;;;;;4.20;0.90;;;;;;;14.82;50.03;101095.59;5010659;28;20096;-69
2022/07/16 02:50:33;;;;;;;3.72;0.70;;;;;;;14.85;49.99;101089.84;5003515;28;20129;-69
2022/07/16 02:53:00;;;;;;;1.35;0.80;;;;;;;14.72;50.24;101095.81;5011689;28;20486;-69
2022/07/16 02:55:27;;;;;;;2.20;0.80;;;;;;;14.90;49.73;101085.56;5011574;28;20124;-69
2022/07/16 02:57:53;;;;;;;2.42;0.95;;;;;;;14.97;49.61;101083.00;5011710;28;20042;-69
2022/07/16 03:00:21;;;;;;;5.18;0.80;;;;;;;14.82;49.96;101088.34;5011961;28;20068;-69
2022/07/16 03:02:48;;;;;;;3.92;0.80;;;;;;;14.91;49.56;101072.91;5012419;28;20061;-69
2022/07/16 03:05:15;;;;;;;2.17;0.55;;;;;;;14.76;50.05;101075.53;5017022;28;20456;-69
2022/07/16 03:07:42;;;;;;;1.42;0.60;;;;;;;14.39;50.67;101066.31;5016510;28;20049;-69
2022/07/16 03:10:11;;;;;;;4.72;0.70;;;;;;;14.65;50.02;101065.97;5011349;28;20101;-69
2022/07/16 03:12:38;;;;;;;4.28;0.88;;;;;;;14.64;50.05;101069.69;5011136;28;20052;-69
2022/07/16 03:15:05;;;;;;;3.08;1.10;;;;;;;14.54;50.15;101063.69;5010715;28;20298;-69
2022/07/16 03:17:32;;;;;;;5.75;0.60;;;;;;;14.59;49.88;101057.72;5011756;28;20137;-69
2022/07/16 03:19:59;;;;;;;2.90;0.95;;;;;;;14.77;49.38;101066.41;5011435;28;20121;-69
2022/07/16 03:22:25;;;;;;;1.50;0.55;;;;;;;14.64;49.57;101067.00;5011418;28;20057;-69
2022/07/16 03:24:52;;;;;;;3.63;0.90;;;;;;;14.50;49.72;101062.34;5011497;28;20052;-69
2022/07/16 03:27:18;;;;;;;2.63;0.63;;;;;;;14.57;49.47;101066.03;5010258;28;20129;-69
2022/07/16 03:29:45;;;;;;;4.80;1.10;;;;;;;14.62;49.59;101068.19;5012126;28;20049;-69
2022/07/16 03:32:13;;;;;;;5.65;0.90;;;;;;;14.75;49.32;101074.72;5011631;28;20137;-69
2022/07/16 03:34:39;;;;;;;4.70;0.73;;;;;;;14.70;49.83;101081.63;5010901;28;20129;-69
2022/07/16 03:37:05;;;;;;;7.38;1.00;;;;;;;14.65;50.12;101063.25;5009593;28;20073;-69
2022/07/16 03:39:33;;;;;;;6.93;0.90;;;;;;;14.67;50.19;101082.84;5010839;28;20526;-69
2022/07/16 03:41:59;;;;;;;4.03;0.80;;;;;;;14.77;50.08;101074.50;5011394;28;20065;-69
2022/07/16 03:44:26;;;;;;;3.90;0.88;;;;;;;14.81;49.83;101072.28;5011461;28;20046;-70
2022/07/16 03:46:52;;;;;;;5.47;0.75;;;;;;;14.66;50.14;101070.34;5011887;28;20133;-69
2022/07/16 03:49:19;;;;;;;3.10;1.10;;;;;;;14.74;49.83;101062.22;5014392;28;20086;-69
2022/07/16 03:51:45;;;;;;;9.15;1.98;;;;;;;14.95;49.34;101058.03;5014914;28;20125;-69
2022/07/16 03:54:12;;;;;;;4.40;0.85;;;;;;;15.08;49.15;101057.41;5015273;28;20054;-69
2022/07/16 03:56:38;;;;;;;6.28;0.90;;;;;;;14.94;49.81;101065.28;5014998;28;20042;-68
2022/07/16 03:59:05;;;;;;;5.18;0.70;;;;;;;14.98;49.90;101068.44;5014005;28;20073;-68
2022/07/16 04:01:32;;;;;;;4.32;1.20;;;;;;;14.78;50.73;101051.91;5013354;28;20490;-69
2022/07/16 04:03:58;;;;;;;2.20;1.08;;;;;;;14.82;51.15;101042.41;5014699;28;20096;-69
2022/07/16 04:06:25;;;;;;;6.18;1.02;;;;;;;14.94;50.60;101046.34;5014125;28;20137;-69
2022/07/16 04:08:52;;;;;;;5.80;0.82;;;;;;;14.99;50.65;101043.97;5014169;28;20145;-69
2022/07/16 04:11:18;;;;;;;3.33;0.90;;;;;;;14.85;50.95;101027.72;5014809;28;20136;-69
2022/07/16 04:13:45;;;;;;;3.85;0.73;;;;;;;14.93;50.72;101035.75;5014273;28;20050;-69
2022/07/16 04:16:11;;;;;;;1.60;0.93;;;;;;;15.00;50.70;101040.25;5014179;28;20049;-69
2022/07/16 04:18:38;;;;;;;2.83;0.75;;;;;;;14.73;51.45;101017.31;5014185;28;20073;-70
2022/07/16 04:21:06;;;;;;;7.13;0.98;;;;;;;14.78;50.88;101011.41;5013904;28;20438;-69
2022/07/16 04:23:34;;;;;;;2.80;0.90;;;;;;;14.86;50.52;101008.63;5014125;28;20046;-69
2022/07/16 04:26:01;;;;;;;4.55;0.82;;;;;;;14.97;50.35;101016.28;5013311;28;20073;-68
2022/07/16 04:28:28;;;;;;;3.05;0.80;;;;;;;14.65;51.20;101014.66;5014826;28;20042;-69
2022/07/16 04:30:55;;;;;;;8.23;1.15;;;;;;;14.79;50.80;101007.66;5014494;28;20121;-68
2022/07/16 04:33:21;;;;;;;2.47;0.85;;;;;;;14.71;50.99;101008.56;5013960;28;20068;-68
2022/07/16 04:35:49;;;;;;;3.08;1.30;;;;;;;14.62;51.11;101006.06;5013635;28;20554;-69
2022/07/16 04:38:17;;;;;;;2.90;0.95;;;;;;;14.36;51.49;100999.19;5013371;28;20054;-68
2022/07/16 04:40:44;;;;;;;5.00;0.63;;;;;;;14.51;51.21;101002.78;5013746;28;20084;-69
2022/07/16 04:43:11;;;;;;;5.88;0.82;;;;;;;14.32;51.79;101002.38;5013040;28;20134;-69
2022/07/16 04:45:38;;;;;;;3.60;0.98;;;;;;;14.41;51.70;100995.94;5014048;28;20121;-69
2022/07/16 04:48:05;;;;;;;4.65;0.80;;;;;;;14.66;50.92;100997.44;5013716;28;20076;-70
2022/07/16 04:50:32;;;;;;;3.55;1.05;;;;;;;14.40;50.80;100999.66;5013164;28;20383;-70
2022/07/16 04:52:58;;;;;;;2.35;0.50;;;;;;;14.63;50.11;101002.34;5014172;28;20494;-70
2022/07/16 04:55:25;;;;;;;1.75;0.55;;;;;;;14.41;50.30;100993.22;5013698;28;20120;-70
2022/07/16 04:57:52;;;;;;;5.07;1.17;;;;;;;14.48;50.70;100986.09;5013598;28;20229;-70
2022/07/16 05:00:23;;;;;;;;;;;;;;;14.38;50.93;101001.69;5014040;28;20056;-69
2022/07/16 05:02:59;;;;;;;2.97;0.80;;;;;;;14.63;49.94;100986.16;5009812;28;19973;-70
2022/07/16 05:05:30;;;;;;;1.77;0.80;;;;;;;14.47;49.83;100984.44;5013589;28;20124;-70
2022/07/16 05:07:57;;;;;;;3.63;0.70;;;;;;;14.75;48.97;100985.59;5013490;28;20050;-70
2022/07/16 05:10:24;;;;;;;4.20;0.68;;;;;;;14.50;49.17;100982.19;5013050;28;20076;-70
2022/07/16 05:12:52;;;;;;;4.72;0.85;;;;;;;14.77;48.43;100990.78;5013010;28;20045;-69
2022/07/16 05:15:20;;;;;;;10.27;2.53;;;;;;;14.75;48.50;100985.59;5013081;28;20084;-69
2022/07/16 05:17:47;;;;;;;2.95;1.38;;;;;;;14.63;49.24;100992.38;5013291;28;20508;-69
2022/07/16 05:20:14;;;;;;;9.18;1.40;;;;;;;14.86;49.30;100986.19;5012650;28;20409;-69
2022/07/16 05:22:41;;;;;;;4.85;0.88;;;;;;;14.80;49.79;100978.78;5012885;28;20489;-69
2022/07/16 05:25:08;;;;;;;4.05;1.40;;;;;;;14.96;48.97;100981.34;5011693;28;20463;-69
2022/07/16 05:27:35;;;;;;;5.22;0.75;;;;;;;15.03;48.96;100981.47;5012448;28;20068;-69
2022/07/16 05:30:03;;;;;;;2.97;0.98;;;;;;;14.95;48.76;100979.69;5011380;28;20493;-70
2022/07/16 05:32:37;;;;;;;4.78;0.82;;;;;;;14.99;48.23;100973.72;5011953;28;20466;-70
2022/07/16 05:35:04;;;;;;;2.83;1.10;;;;;;;15.03;48.23;100974.19;5013068;28;20072;-69
2022/07/16 05:37:31;;;;;;;5.63;1.10;;;;;;;14.93;48.65;100974.44;5013251;28;20451;-69
2022/07/16 05:39:57;;;;;;;4.53;1.38;;;;;;;15.03;48.44;100978.75;5012880;28;20474;-69
2022/07/16 05:42:24;;;;;;;6.40;1.10;;;;;;;15.06;47.85;100963.03;5012182;28;20081;-70
2022/07/16 05:44:51;;;;;;;3.80;1.15;;;;;;;15.32;47.60;100961.75;5012223;28;20045;-70
2022/07/16 05:47:17;;;;;;;2.30;1.02;;;;;;;15.32;47.89;100959.88;5010258;28;20561;-70
2022/07/16 05:49:44;;;;;;;5.82;1.30;;;;;;;15.21;48.15;100969.28;5011194;28;20096;-70
2022/07/16 05:52:10;;;;;;;6.93;1.10;;;;;;;15.34;47.96;100970.50;5012067;28;20138;-70
2022/07/16 05:54:37;;;;;;;8.45;1.30;;;;;;;15.31;47.92;100976.28;5007730;28;20129;-70
2022/07/16 05:57:03;;;;;;;5.22;1.30;;;;;;;15.51;47.63;100974.72;5013041;28;20482;-70
2022/07/16 05:59:30;;;;;;;2.83;1.38;;;;;;;15.33;48.41;100974.22;5012190;28;20081;-70
2022/07/16 06:01:56;;;;;;;3.92;1.45;;;;;;;15.52;48.00;100978.25;5013228;28;20125;-70
2022/07/16 06:04:23;;;;;;;5.28;1.30;;;;;;;15.40;48.33;100976.03;5011378;28;20093;-70
2022/07/16 06:06:50;;;;;;;5.18;1.30;;;;;;;15.51;49.30;100973.88;5010245;28;20045;-71
2022/07/16 06:09:16;;;;;;;3.30;1.67;;;;;;;15.16;50.77;100973.56;5011546;28;20136;-70
2022/07/16 06:11:43;;;;;;;4.60;1.63;;;;;;;15.11;51.37;100979.50;5011111;28;20070;-70
2022/07/16 06:14:09;;;;;;;8.20;1.67;;;;;;;14.99;52.83;100983.69;5010625;28;20104;-70
2022/07/16 06:16:39;;;;;;;6.07;1.25;;;;;;;15.12;52.73;100986.63;5013028;28;20053;-70
2022/07/16 06:19:06;;;;;;;10.43;2.20;;;;;;;15.21;52.80;100996.31;5011384;28;20080;-70
2022/07/16 06:21:33;;;;;;;5.00;1.55;;;;;;;15.28;52.77;100995.56;5010970;28;20096;-70
2022/07/16 06:24:00;;;;;;;3.97;1.42;;;;;;;15.34;53.24;100997.53;5016888;28;20128;-70
2022/07/16 06:26:26;;;;;;;5.70;1.63;;;;;;;15.23;54.41;100996.13;5012289;28;20076;-70
2022/07/16 06:28:53;;;;;;;6.65;1.92;;;;;;;15.36;54.59;101006.28;5011085;28;20061;-70
2022/07/16 06:31:20;;;;;;;10.10;1.75;;;;;;;15.18;55.38;101003.94;5011347;28;20050;-70
2022/07/16 06:33:47;;;;;;;11.68;2.15;;;;;;;14.63;57.72;101008.59;5010100;28;20065;-70
2022/07/16 06:36:14;;;;;;;8.73;1.75;;;;;;;14.94;57.61;101023.91;5011177;28;20133;-68
2022/07/16 06:38:40;;;;;;;6.35;2.15;;;;;;;14.87;58.12;101026.50;5011464;28;20046;-69
2022/07/16 06:41:07;;;;;;;5.75;1.88;;;;;;;14.57;59.44;101027.38;5012243;28;20046;-70
2022/07/16 06:43:38;;;;;;;5.22;1.88;;;;;;;14.73;59.56;101025.41;5010652;28;20447;-69
2022/07/16 06:46:05;;;;;;;2.53;1.35;;;;;;;14.53;60.25;101034.97;5010901;28;20490;-69
2022/07/16 06:48:31;;;;;;;5.15;1.90;;;;;;;14.56;60.68;101031.91;5012659;28;20132;-70
2022/07/16 06:50:59;;;;;;;11.75;1.80;;;;;;;14.41;61.53;101029.16;5010519;28;20491;-70
2022/07/16 06:53:27;;;;;;;5.85;1.70;;;;;;;14.17;63.08;101030.13;5011354;28;20509;-70
2022/07/16 06:55:53;;;;;;;4.63;2.05;;;;;;;14.53;61.98;101043.06;5010945;28;20076;-70
2022/07/16 06:58:20;;;;;;;6.15;1.73;;;;;;;14.42;63.03;101038.09;5011205;28;20132;-70
2022/07/16 07:00:46;;;;;;;4.72;2.28;;;;;;;14.54;62.58;101045.63;5011419;28;20137;-70
2022/07/16 07:03:13;;;;;;;4.82;2.00;;;;;;;14.52;62.73;101044.94;5010763;28;20439;-70
2022/07/16 07:05:40;;;;;;;6.00;2.03;;;;;;;14.36;64.22;101036.97;5010766;28;20046;-70
2022/07/16 07:08:06;;;;;;;5.60;2.17;;;;;;;14.42;63.55;101035.38;4997490;28;20062;-70
2022/07/16 07:10:33;;;;;;;3.55;2.15;;;;;;;14.38;64.00;101034.06;5010745;28;20133;-70
2022/07/16 07:12:59;;;;;;;4.53;2.30;;;;;;;14.71;63.97;101029.31;5011426;28;20132;-70
2022/07/16 07:15:26;;;;;;;5.90;2.42;;;;;;;14.83;63.40;101032.44;5011018;28;20167;-70
2022/07/16 07:17:53;;;;;;;8.45;2.67;;;;;;;15.05;63.27;101028.91;5011425;28;20069;-70
2022/07/16 07:20:20;;;;;;;4.43;1.90;;;;;;;15.33;61.89;101025.56;5012412;28;20077;-70
2022/07/16 07:22:50;;;;;;;5.85;2.20;;;;;;;15.58;61.32;101031.59;5015131;28;20125;-70
2022/07/16 07:25:16;;;;;;;12.52;2.83;;;;;;;16.15;60.60;101026.34;5015047;28;20100;-70
2022/07/16 07:27:43;;;;;;;4.85;1.88;;;;;;;16.38;59.99;101028.91;5015890;28;20074;-70
2022/07/16 07:30:11;;;;;;;3.60;1.90;;;;;;;16.49;59.60;101041.13;5015743;28;20092;-70
2022/07/16 07:32:38;;;;;;;6.28;1.80;;;;;;;16.16;60.41;101032.63;5016419;28;20072;-70
2022/07/16 07:35:06;;;;;;;5.00;1.80;;;;;;;16.31;59.35;101046.97;5014586;28;20147;-70
2022/07/16 07:37:33;;;;;;;3.15;1.58;;;;;;;16.34;57.99;101051.16;5015110;28;20069;-70
2022/07/16 07:40:02;;;;;;;4.13;1.95;;;;;;;16.73;57.63;101045.34;5011933;28;21184;-70
2022/07/16 07:42:28;;;;;;;7.68;2.78;;;;;;;16.73;57.46;101060.78;5023086;28;20138;-70
2022/07/16 07:44:55;;;;;;;5.55;2.42;;;;;;;16.72;58.05;101054.53;5014978;28;20129;-70
2022/07/16 07:47:22;;;;;;;3.97;2.30;;;;;;;16.74;57.27;101051.63;5012687;28;20160;-70
2022/07/16 07:49:48;;;;;;;5.07;2.45;;;;;;;16.29;58.50;101062.53;5015093;28;20141;-70
2022/07/16 07:52:15;;;;;;;7.18;2.13;;;;;;;16.27;58.48;101053.78;5014780;28;20133;-70
2022/07/16 07:54:42;;;;;;;4.40;2.10;;;;;;;16.30;58.24;101064.25;5014441;28;20068;-70
2022/07/16 07:57:08;;;;;;;5.28;2.10;;;;;;;16.17;59.00;101062.19;5009836;28;20578;-70
2022/07/16 07:59:35;;;;;;;7.65;2.20;;;;;;;16.77;57.05;101059.34;5014758;28;20100;-70
2022/07/16 08:02:01;;;;;;;5.07;1.70;;;;;;;17.64;54.62;101060.94;5014264;28;20135;-70
2022/07/16 08:04:28;;;;;;;5.13;1.63;;;;;;;17.66;54.36;101058.88;5015087;28;20100;-70
2022/07/16 08:06:55;;;;;;;4.65;1.80;;;;;;;19.07;49.83;101062.81;5013722;28;20049;-70
2022/07/16 08:09:21;;;;;;;4.03;1.92;;;;;;;19.00;49.07;101073.66;5013317;28;20053;-70
2022/07/16 08:11:48;;;;;;;5.38;1.65;;;;;;;19.18;49.99;101074.94;5015123;28;20132;-70
2022/07/16 08:14:14;;;;;;;4.65;2.08;;;;;;;18.44;50.60;101063.03;5011469;28;20129;-70
2022/07/16 08:16:57;;;;;;;2.17;1.38;;;;;;;18.66;50.21;101069.19;5014326;28;20060;-70
2022/07/16 08:19:24;;;;;;;2.88;1.02;;;;;;;19.72;47.19;101060.25;5014456;28;20133;-70
2022/07/16 08:21:51;;;;;;;1.77;1.20;;;;;;;20.10;46.41;101051.34;5015028;28;20544;-70
2022/07/16 08:27:02;;;;;;;3.17;1.50;;;;;;;20.40;44.58;101057.13;5014925;28;20132;-70
2022/07/16 08:29:29;;;;;;;3.70;1.52;;;;;;;20.44;43.82;101058.34;5014163;28;20129;-70
2022/07/16 08:31:56;;;;;;;3.28;1.20;;;;;;;20.55;43.64;101071.28;5013840;28;20050;-70
2022/07/16 08:34:23;;;;;;;6.70;1.63;;;;;;;19.41;45.67;101071.78;5014464;28;20505;-70
2022/07/16 08:36:51;;;;;;;2.97;1.52;;;;;;;18.99;46.33;101068.41;5014447;28;20124;-70
2022/07/16 08:39:18;;;;;;;3.45;1.30;;;;;;;18.61;46.49;101079.81;5014290;28;20054;-70
2022/07/16 08:41:45;;;;;;;3.50;1.15;;;;;;;18.81;45.96;101089.91;5014722;28;20129;-71
2022/07/16 08:44:12;;;;;;;3.42;1.30;;;;;;;19.00;44.88;101084.53;5015465;28;20140;-71
2022/07/16 08:46:40;;;;;;;7.93;1.20;;;;;;;20.46;41.77;101093.56;5013597;28;20137;-70
2022/07/16 08:49:07;;;;;;;5.20;1.70;;;;;;;21.03;39.54;101089.03;5013324;28;20129;-70
2022/07/16 08:51:38;;;;;;;8.07;1.42;;;;;;;20.88;39.67;101097.53;5013743;28;20073;-68
2022/07/16 08:54:19;;;;;;;5.53;1.48;;;;;;;20.69;39.82;101099.31;5013923;28;20137;-69
2022/07/16 08:56:46;;;;;;;2.40;1.20;;;;;;;20.72;39.14;101093.41;5013165;28;20069;-69
2022/07/16 08:59:13;;;;;;;7.53;3.13;;;;;;;20.79;39.21;101096.94;5014885;28;20073;-68
2022/07/16 09:01:41;;;;;;;6.43;1.65;;;;;;;20.86;38.43;101102.34;5012813;28;20092;-69
2022/07/16 09:04:08;;;;;;;7.03;1.80;;;;;;;21.68;36.75;101110.56;5014355;28;20045;-68
2022/07/16 09:06:35;;;;;;;4.53;1.52;;;;;;;22.46;35.77;101099.81;5012604;28;20442;-69
2022/07/16 09:09:02;;;;;;;2.10;1.35;;;;;;;22.64;35.55;101118.16;5012539;28;20077;-69
2022/07/16 09:11:31;;;;;;;8.35;1.45;;;;;;;22.75;34.43;101102.84;5013473;28;20050;-68
2022/07/16 09:14:04;;;;;;;3.65;1.83;;;;;;;22.97;33.73;101117.66;5013011;28;20056;-68
2022/07/16 09:16:34;;;;;;;2.15;1.00;;;;;;;22.70;34.49;101114.47;5013576;28;20540;-69
2022/07/16 09:19:07;;;;;;;2.45;1.02;;;;;;;23.16;33.36;101113.00;5013387;28;20449;-69
2022/07/16 09:21:35;;;;;;;2.28;1.17;;;;;;;23.15;33.00;101125.00;5013357;28;20132;-69
2022/07/16 09:24:04;;;;;;;4.15;1.27;;;;;;;22.70;32.86;101117.19;5013505;28;20073;-69
2022/07/16 09:26:31;;;;;;;5.65;0.90;;;;;;;23.54;31.11;101119.09;5011867;28;20077;-69
2022/07/16 09:29:01;;;;;;;3.20;0.77;;;;;;;23.97;30.58;101116.88;5012637;28;20072;-69
2022/07/16 09:31:38;;;;;;;3.35;0.90;;;;;;;23.33;31.46;101109.56;5012522;28;20049;-69
2022/07/16 09:34:15;;;;;;;3.47;0.85;;;;;;;22.06;33.30;101127.63;5011707;28;20045;-69
2022/07/16 09:37:20;;;;;;;6.25;1.25;;;;;;;22.51;32.57;101121.06;5011629;28;20077;-69
2022/07/16 09:39:47;;;;;;;4.30;1.00;;;;;;;22.33;32.62;101139.09;4990353;28;20046;-69
2022/07/16 09:42:13;;;;;;;4.60;1.00;;;;;;;21.84;33.19;101124.53;4992114;28;20108;-69
2022/07/16 09:44:42;;;;;;;5.07;0.80;;;;;;;21.92;32.33;101130.75;4990357;28;20212;-69
2022/07/16 09:47:12;;;;;;;4.68;1.23;;;;;;;22.62;31.08;101127.63;4990637;28;20105;-68
2022/07/16 09:49:49;;;;;;;2.53;0.90;;;;;;;23.23;30.25;101127.41;4991086;28;20046;-69
2022/07/16 09:52:33;;;;;;;4.00;1.08;;;;;;;23.24;30.47;101126.34;4990117;28;20054;-69
2022/07/16 09:55:01;;;;;;;1.75;0.98;;;;;;;24.14;28.84;101133.41;4997955;28;20435;-68
2022/07/16 09:57:28;;;;;;;2.78;0.80;;;;;;;23.08;30.22;101137.91;5002163;28;20050;-68
2022/07/16 09:59:57;;;;;;;2.13;0.95;;;;;;;22.56;30.99;101138.41;4997796;28;20050;-68
2022/07/16 10:02:27;;;;;;;;;;;;;;;21.67;32.99;101139.78;5006541;28;20046;-68
2022/07/16 10:04:54;;;;;;;2.78;1.30;;;;;;;21.83;31.41;101141.94;4998060;28;19972;-68
2022/07/16 10:07:29;;;;;;;4.93;0.70;;;;;;;21.91;30.80;101142.72;5000548;28;20053;-69
2022/07/16 10:09:56;;;;;;;3.72;0.75;;;;;;;21.49;30.97;101153.34;4995842;28;20453;-67
2022/07/16 10:12:23;;;;;;;2.00;0.70;;;;;;;21.45;31.72;101150.22;5010727;28;20521;-68
2022/07/16 10:14:52;;;;;;;2.22;1.10;;;;;;;22.03;31.04;101149.94;5012003;28;20046;-68
2022/07/16 10:17:23;;;;;;;2.17;0.90;;;;;;;22.28;30.37;101157.25;5011650;28;20129;-69
2022/07/16 10:20:01;;;;;;;2.03;0.88;;;;;;;21.68;31.66;101168.75;5012666;28;20484;-69
2022/07/16 10:22:31;;;;;;;1.25;0.68;;;;;;;21.14;32.44;101164.72;5011033;28;20085;-69
2022/07/16 10:24:58;;;;;;;8.52;1.00;;;;;;;21.03;32.18;101176.31;5011767;28;20486;-69
2022/07/16 10:27:35;;;;;;;3.28;1.10;;;;;;;20.95;33.18;101173.84;5012439;28;20046;-69
2022/07/16 10:30:18;;;;;;;3.85;1.60;;;;;;;21.41;31.67;101178.19;5011836;28;20129;-69
2022/07/16 10:33:00;;;;;;;2.58;0.77;;;;;;;21.19;32.07;101184.03;5011469;28;20076;-68
2022/07/16 10:35:38;;;;;;;5.65;0.98;;;;;;;21.72;32.08;101180.88;5011121;28;20386;-69
2022/07/16 10:38:12;;;;;;;12.82;1.80;;;;;;;21.61;34.65;101177.00;5010464;28;20490;-70
2022/07/16 10:41:21;;;;;;;5.40;1.00;;;;;;;22.63;30.11;101168.41;4994648;28;20391;-69
2022/07/16 10:44:09;;;;;;;3.58;1.20;;;;;;;23.06;28.79;101183.84;5010941;28;20073;-69
2022/07/16 10:46:52;;;;;;;5.30;0.90;;;;;;;22.26;29.29;101189.44;5011901;28;20078;-68
2022/07/16 10:49:20;;;;;;;1.95;1.05;;;;;;;22.42;29.26;101183.34;5011760;28;20050;-68
2022/07/16 10:51:53;;;;;;;;;;;;;;;22.36;29.81;101189.75;5012022;28;20048;-67
2022/07/16 10:54:29;;;;;;;3.35;1.00;;;;;;;22.40;29.48;101188.25;5011380;28;20422;-68
2022/07/16 10:56:58;;;;;;;6.88;1.10;;;;;;;21.91;30.21;101192.75;5013022;28;20069;-69
2022/07/16 10:59:28;;;;;;;8.45;1.45;;;;;;;22.18;30.11;101206.97;5015301;28;20053;-68
2022/07/16 11:02:01;;;;;;;2.92;1.10;;;;;;;21.88;29.49;101200.56;5015579;28;20088;-69
2022/07/16 11:04:36;;;;;;;2.70;1.10;;;;;;;22.06;29.91;101187.75;5015006;28;20053;-69
2022/07/16 11:07:08;;;;;;;6.32;1.20;;;;;;;22.24;29.88;101197.84;5015672;28;20065;-69
2022/07/16 11:09:40;;;;;;;2.80;1.08;;;;;;;22.37;29.34;101207.00;5014669;28;20073;-69
2022/07/16 11:12:29;;;;;;;3.55;1.00;;;;;;;22.19;28.92;101203.19;5015687;28;20478;-68
2022/07/16 11:14:58;;;;;;;3.53;1.35;;;;;;;22.19;29.91;101211.38;5015653;28;20453;-68
2022/07/16 11:17:30;;;;;;;3.95;1.13;;;;;;;21.82;30.48;101219.47;5016417;28;20070;-68
2022/07/16 11:19:59;;;;;;;7.18;1.10;;;;;;;21.73;29.91;101212.59;5015572;28;20042;-68
2022/07/16 11:22:30;;;;;;;5.90;1.25;;;;;;;21.65;30.49;101207.41;5015803;28;20089;-69
2022/07/16 11:24:59;;;;;;;5.63;1.30;;;;;;;21.85;30.36;101220.94;5013621;28;20462;-68
2022/07/16 11:27:32;;;;;;;2.90;0.80;;;;;;;22.02;29.75;101218.47;5015713;28;20049;-69
2022/07/16 11:30:00;;;;;;;12.80;2.22;;;;;;;22.08;29.33;101209.38;5014860;28;20064;-69
2022/07/16 11:32:28;;;;;;;6.82;1.38;;;;;;;22.56;27.98;101230.56;5014462;28;20052;-68
2022/07/16 11:34:54;;;;;;;4.65;1.30;;;;;;;22.55;28.33;101234.38;5015718;28;20053;-68
2022/07/16 11:37:21;;;;;;;1.77;0.95;;;;;;;22.82;27.17;101234.88;5015853;28;20100;-67
2022/07/16 11:39:48;;;;;;;3.55;1.25;;;;;;;23.36;26.83;101224.91;5014877;28;20564;-69